Wiseman, Arkansas
Current Conditions -  °F | °C
As of 2:15 PM on Thursday 29 Jan 2015 (Local Time) from KBVX Reporting Station
Overcast Overcast  
Wind Chill: 52°   Ceiling: 3300
Heat Index: 52°   Visibility: 10mi
Dew Point: 36°   Wind: 9mph
Humidity: 54%   Direction: 300°WNW
Pressure: 30.22"   Gusts: 22mph
Location:  36.23°N, 91.82°W
Report Text: KBVX 292015Z AUTO 30008G19KT 220V060 10SM OVC033 11/02 A3022 RMK AO1
Loading
Personal Weather Stations






























Interactive Weather Map New forecast layout! Learn more

10-Day Weather Forecast

Advertisements
Track Severe Weather on mobile